createdAt,value
2018-07-17T00:02:34.738Z,19.20
2018-07-17T00:07:42.212Z,19.20
2018-07-17T00:12:44.766Z,19.10
2018-07-17T00:17:47.233Z,19.10
2018-07-17T00:22:49.732Z,19.10
2018-07-17T00:27:52.221Z,19.10
2018-07-17T00:32:54.712Z,19.00
2018-07-17T00:37:59.361Z,19.00
2018-07-17T00:43:04.257Z,19.00
2018-07-17T00:48:10.372Z,18.90
2018-07-17T00:53:13.248Z,18.90
2018-07-17T00:58:15.750Z,18.90
2018-07-17T01:03:23.884Z,18.90
2018-07-17T01:08:32.117Z,18.80
2018-07-17T01:13:34.601Z,18.80
2018-07-17T01:18:37.097Z,18.80
2018-07-17T01:23:39.597Z,18.70
2018-07-17T01:28:42.122Z,18.70
2018-07-17T01:33:44.617Z,18.70
2018-07-17T01:38:47.097Z,18.60
2018-07-17T01:43:49.601Z,18.50
2018-07-17T01:48:52.093Z,18.50
2018-07-17T01:53:54.583Z,18.40
2018-07-17T01:58:57.065Z,18.40
2018-07-17T02:03:59.555Z,18.30
2018-07-17T02:09:02.278Z,18.30
2018-07-17T02:14:05.279Z,18.20
2018-07-17T02:19:12.062Z,18.20
2018-07-17T02:24:15.072Z,18.20
2018-07-17T02:29:19.767Z,18.10
2018-07-17T02:34:24.919Z,18.00
2018-07-17T02:39:29.677Z,18.00
2018-07-17T02:44:34.068Z,17.90
2018-07-17T02:49:37.533Z,17.90
2018-07-17T02:54:42.926Z,17.80
2018-07-17T02:59:47.199Z,17.80
2018-07-17T03:04:50.254Z,17.70
2018-07-17T03:09:53.810Z,17.70
2018-07-17T03:14:58.291Z,17.60
2018-07-17T03:20:03.070Z,17.60
2018-07-17T03:25:06.158Z,17.50
2018-07-17T03:30:09.550Z,17.40
2018-07-17T03:35:15.652Z,17.40
2018-07-17T03:40:20.957Z,17.40
2018-07-17T03:45:23.702Z,17.30
2018-07-17T03:50:27.050Z,17.30
2018-07-17T03:55:29.974Z,17.30
2018-07-17T04:00:34.035Z,17.20
2018-07-17T04:05:37.029Z,17.20
2018-07-17T04:10:43.036Z,17.20
2018-07-17T04:15:47.544Z,17.10
2018-07-17T04:20:53.890Z,17.10
2018-07-17T04:25:58.826Z,17.10
2018-07-17T04:31:01.330Z,17.10
2018-07-17T04:36:03.853Z,17.10
2018-07-17T04:41:07.171Z,17.10
2018-07-17T04:46:10.025Z,17.10
2018-07-17T04:51:13.659Z,17.20
2018-07-17T04:56:16.317Z,17.20
2018-07-17T05:01:19.240Z,17.20
2018-07-17T05:06:22.827Z,17.30
2018-07-17T05:11:25.987Z,17.30
2018-07-17T05:16:30.168Z,17.40
2018-07-17T05:21:33.011Z,17.40
2018-07-17T05:26:37.030Z,17.50
2018-07-17T05:31:40.511Z,17.50
2018-07-17T05:36:44.313Z,17.60
2018-07-17T05:41:48.092Z,17.60
2018-07-17T05:46:51.419Z,17.70
2018-07-17T05:51:59.776Z,17.80
2018-07-17T06:02:12.641Z,18.00
2018-07-17T06:07:16.701Z,18.20
2018-07-17T06:12:21.678Z,18.40
2018-07-17T06:17:27.620Z,18.80
2018-07-17T06:22:30.957Z,19.10
2018-07-17T06:27:35.699Z,19.90
2018-07-17T06:32:38.923Z,19.90
2018-07-17T06:37:42.713Z,20.70
2018-07-17T06:42:46.894Z,20.70
2018-07-17T06:47:55.650Z,21.10
2018-07-17T06:52:58.574Z,21.50
2018-07-17T06:58:01.641Z,21.80
2018-07-17T07:03:04.425Z,22.10
2018-07-17T07:08:08.542Z,22.30
2018-07-17T07:13:11.457Z,22.40
2018-07-17T07:18:14.297Z,22.70
2018-07-17T07:23:17.856Z,23.00
2018-07-17T07:28:20.653Z,23.40
2018-07-17T07:33:23.618Z,23.80
2018-07-17T07:38:26.497Z,24.20
2018-07-17T07:43:30.157Z,24.70
2018-07-17T07:48:34.907Z,25.00
2018-07-17T07:53:38.769Z,25.60
2018-07-17T07:58:45.704Z,25.60
2018-07-17T08:03:49.949Z,25.90
2018-07-17T08:08:54.210Z,26.20
2018-07-17T08:13:57.379Z,26.50
2018-07-17T08:19:00.366Z,26.80
2018-07-17T08:24:03.718Z,27.10
2018-07-17T08:29:08.394Z,27.40
2018-07-17T08:34:12.124Z,27.60
2018-07-17T08:39:16.983Z,27.90
2018-07-17T08:44:22.424Z,28.20
2018-07-17T08:49:27.408Z,28.50
2018-07-17T08:54:31.851Z,28.80
2018-07-17T08:59:35.270Z,29.00
2018-07-17T09:04:39.208Z,29.30
2018-07-17T09:09:43.709Z,29.50
2018-07-17T09:14:48.910Z,29.70
2018-07-17T09:19:53.256Z,29.90
2018-07-17T09:24:57.519Z,30.10
2018-07-17T09:30:02.661Z,30.30
2018-07-17T09:35:08.871Z,30.50
2018-07-17T09:40:12.657Z,30.70
2018-07-17T09:45:17.274Z,30.90
2018-07-17T09:50:21.653Z,31.00
2018-07-17T09:55:26.065Z,31.10
2018-07-17T10:00:34.763Z,31.20
2018-07-17T10:05:39.407Z,31.00
2018-07-17T10:10:44.424Z,31.00
2018-07-17T10:15:48.330Z,30.90
2018-07-17T10:20:55.078Z,30.60
2018-07-17T10:26:00.244Z,30.60
2018-07-17T10:31:07.014Z,30.60
2018-07-17T10:36:12.139Z,30.60
2018-07-17T10:41:16.993Z,30.50
2018-07-17T10:46:23.218Z,30.50
2018-07-17T10:51:28.753Z,30.40
2018-07-17T10:56:32.691Z,30.60
2018-07-17T11:01:38.935Z,30.70
2018-07-17T11:06:45.627Z,30.70
2018-07-17T11:11:53.241Z,30.90
2018-07-17T11:17:02.458Z,31.30
2018-07-17T11:22:05.909Z,31.20
2018-07-17T11:27:13.838Z,31.40
2018-07-17T11:32:18.803Z,31.70
2018-07-17T11:37:23.762Z,31.90
2018-07-17T11:42:30.404Z,31.90
2018-07-17T11:47:35.975Z,32.10
2018-07-17T11:52:41.646Z,32.10
2018-07-17T11:57:44.170Z,32.30
2018-07-17T12:02:46.660Z,32.30
2018-07-17T12:07:53.611Z,32.40
2018-07-17T12:12:57.082Z,32.60
2018-07-17T12:18:02.003Z,32.70
2018-07-17T12:23:07.722Z,32.70
2018-07-17T12:28:10.333Z,32.80
2018-07-17T12:33:12.733Z,32.80
2018-07-17T12:38:15.229Z,32.90
2018-07-17T12:43:17.725Z,33.00
2018-07-17T12:48:20.226Z,33.00
2018-07-17T12:53:22.733Z,33.00
2018-07-17T12:58:25.240Z,33.10
2018-07-17T13:03:27.742Z,33.20
2018-07-17T13:08:30.248Z,33.20
2018-07-17T13:13:32.742Z,33.30
2018-07-17T13:18:35.238Z,33.40
2018-07-17T13:23:37.729Z,33.40
2018-07-17T13:28:40.218Z,33.50
2018-07-17T13:33:46.827Z,33.50
2018-07-17T13:38:50.592Z,33.40
2018-07-17T13:43:55.517Z,33.40
2018-07-17T13:49:02.372Z,33.40
2018-07-17T13:54:05.665Z,33.40
2018-07-17T14:04:19.965Z,33.00
2018-07-17T14:09:28.156Z,33.00
2018-07-17T14:14:35.408Z,32.80
2018-07-17T14:19:41.451Z,32.60
2018-07-17T14:24:52.486Z,32.50
2018-07-17T14:29:57.568Z,32.30
2018-07-17T14:35:04.974Z,32.30
2018-07-17T14:40:11.108Z,32.10
2018-07-17T14:45:17.357Z,32.10
2018-07-17T14:50:21.836Z,31.90
2018-07-17T14:55:28.550Z,31.50
2018-07-17T15:00:32.679Z,31.50
2018-07-17T15:05:38.425Z,31.40
2018-07-17T15:10:42.477Z,31.40
2018-07-17T15:21:06.473Z,31.40
2018-07-17T15:26:15.813Z,31.30
2018-07-17T15:31:18.417Z,31.30
2018-07-17T15:36:20.905Z,31.30
2018-07-17T15:41:23.398Z,31.20
2018-07-17T15:46:25.922Z,31.00
2018-07-17T15:51:31.629Z,30.90
2018-07-17T15:56:34.167Z,30.90
2018-07-17T16:01:36.668Z,30.90
2018-07-17T16:06:43.025Z,30.70
2018-07-17T16:11:46.837Z,30.50
2018-07-17T16:16:52.956Z,30.30
2018-07-17T16:21:57.136Z,30.10
2018-07-17T16:27:01.111Z,30.00
2018-07-17T16:37:15.587Z,29.70
2018-07-17T16:42:22.605Z,29.50
2018-07-17T16:47:29.564Z,29.40
2018-07-17T16:52:38.842Z,29.20
2018-07-17T16:57:44.216Z,28.90
2018-07-17T17:02:48.730Z,28.60
2018-07-17T17:07:51.274Z,28.50
2018-07-17T17:12:53.896Z,28.30
2018-07-17T17:17:56.389Z,28.20
2018-07-17T17:22:58.882Z,28.10
2018-07-17T17:28:01.397Z,28.00
2018-07-17T17:33:03.896Z,27.90
2018-07-17T17:38:08.236Z,27.80
2018-07-17T17:43:13.692Z,27.70
2018-07-17T17:48:17.717Z,27.60
2018-07-17T17:53:22.575Z,27.50
2018-07-17T17:58:26.460Z,27.50
2018-07-17T18:03:32.334Z,27.40
2018-07-17T18:13:44.637Z,27.20
2018-07-17T18:18:47.619Z,27.10
2018-07-17T18:23:51.271Z,26.90
2018-07-17T18:28:53.758Z,26.80
2018-07-17T18:33:59.865Z,26.70
2018-07-17T18:39:03.006Z,26.60
2018-07-17T18:44:08.302Z,26.40
2018-07-17T18:49:11.799Z,26.20
2018-07-17T18:54:15.291Z,26.10
2018-07-17T18:59:18.773Z,26.10
2018-07-17T19:04:21.616Z,26.00
2018-07-17T19:09:30.290Z,25.80
2018-07-17T19:14:33.088Z,25.70
2018-07-17T19:19:36.859Z,25.60
2018-07-17T19:24:39.396Z,25.50
2018-07-17T19:29:41.829Z,25.40
2018-07-17T19:34:44.326Z,25.20
2018-07-17T19:39:46.822Z,25.10
2018-07-17T19:44:49.310Z,25.00
2018-07-17T19:49:51.807Z,24.80
2018-07-17T19:54:54.307Z,24.70
2018-07-17T19:59:57.682Z,24.60
2018-07-17T20:05:00.414Z,24.50
2018-07-17T20:10:02.936Z,24.40
2018-07-17T20:15:06.496Z,24.30
2018-07-17T20:20:09.673Z,24.20
2018-07-17T20:25:12.878Z,24.10
2018-07-17T20:30:16.377Z,24.00
2018-07-17T20:35:19.292Z,23.90
2018-07-17T20:40:22.920Z,23.80
2018-07-17T20:45:26.062Z,23.70
2018-07-17T20:50:30.773Z,23.60
2018-07-17T20:55:33.802Z,23.50
2018-07-17T21:00:36.768Z,23.50
2018-07-17T21:05:39.529Z,23.40
2018-07-17T21:10:43.251Z,23.30
2018-07-17T21:15:46.510Z,23.20
2018-07-17T21:20:48.996Z,23.20
2018-07-17T21:25:51.557Z,23.20
2018-07-17T21:30:54.049Z,23.10
2018-07-17T21:35:56.556Z,23.00
2018-07-17T21:40:59.013Z,23.00
2018-07-17T21:46:01.501Z,22.90
2018-07-17T21:51:03.981Z,22.90
2018-07-17T21:56:06.461Z,22.80
2018-07-17T22:01:08.945Z,22.80
2018-07-17T22:06:11.431Z,22.80
2018-07-17T22:11:14.677Z,22.70
2018-07-17T22:16:17.160Z,22.60
2018-07-17T22:21:19.640Z,22.60
2018-07-17T22:26:22.894Z,22.50
2018-07-17T22:31:25.381Z,22.50
2018-07-17T22:36:27.864Z,22.50
2018-07-17T22:41:31.133Z,22.40
2018-07-17T22:46:33.621Z,22.30
2018-07-17T22:51:36.108Z,22.30
2018-07-17T22:56:38.592Z,22.30
2018-07-17T23:01:41.103Z,22.20
2018-07-17T23:06:43.560Z,22.20
2018-07-17T23:11:46.055Z,22.10
2018-07-17T23:16:48.537Z,22.10
2018-07-17T23:21:51.016Z,22.00
2018-07-17T23:26:53.496Z,22.00
2018-07-17T23:31:55.982Z,21.90
2018-07-17T23:36:58.460Z,21.80
2018-07-17T23:42:00.950Z,21.80
2018-07-17T23:47:03.439Z,21.70
2018-07-17T23:52:05.911Z,21.70
2018-07-17T23:57:08.392Z,21.60
